sensor_id;sensor_type;location;lat;lon;timestamp;P1;durP1;ratioP1;P2;durP2;ratioP2
2362;SDS011;64265;51.664;7.626;2024-01-15T00:01:04;3.13;;;2.75;;
2362;SDS011;64265;51.664;7.626;2024-01-15T00:03:30;3.20;;;2.88;;
2362;SDS011;64265;51.664;7.626;2024-01-15T00:05:57;4.47;;;2.50;;
2362;SDS011;64265;51.664;7.626;2024-01-15T00:08:24;4.82;;;2.55;;
2362;SDS011;64265;51.664;7.626;2024-01-15T00:10:50;2.65;;;2.45;;
2362;SDS011;64265;51.664;7.626;2024-01-15T00:13:17;3.33;;;3.05;;
2362;SDS011;64265;51.664;7.626;2024-01-15T00:15:44;3.40;;;2.40;;
2362;SDS011;64265;51.664;7.626;2024-01-15T00:18:12;5.10;;;3.00;;
2362;SDS011;64265;51.664;7.626;2024-01-15T00:20:39;2.53;;;2.25;;
2362;SDS011;64265;51.664;7.626;2024-01-15T00:23:06;3.38;;;3.00;;
2362;SDS011;64265;51.664;7.626;2024-01-15T00:25:32;3.10;;;2.30;;
2362;SDS011;64265;51.664;7.626;2024-01-15T00:27:59;3.67;;;3.30;;
2362;SDS011;64265;51.664;7.626;2024-01-15T00:30:26;2.92;;;2.70;;
2362;SDS011;64265;51.664;7.626;2024-01-15T00:32:53;2.47;;;2.28;;
2362;SDS011;64265;51.664;7.626;2024-01-15T00:35:21;2.70;;;2.50;;
2362;SDS011;64265;51.664;7.626;2024-01-15T00:37:47;2.47;;;2.28;;
2362;SDS011;64265;51.664;7.626;2024-01-15T00:40:14;7.00;;;2.90;;
2362;SDS011;64265;51.664;7.626;2024-01-15T00:42:41;2.95;;;2.67;;
2362;SDS011;64265;51.664;7.626;2024-01-15T00:45:08;4.25;;;2.97;;
2362;SDS011;64265;51.664;7.626;2024-01-15T00:47:35;2.30;;;2.10;;
2362;SDS011;64265;51.664;7.626;2024-01-15T00:50:02;2.50;;;2.30;;
2362;SDS011;64265;51.664;7.626;2024-01-15T00:52:30;2.58;;;2.38;;
2362;SDS011;64265;51.664;7.626;2024-01-15T00:54:57;2.35;;;2.13;;
2362;SDS011;64265;51.664;7.626;2024-01-15T00:57:24;2.42;;;2.22;;
2362;SDS011;64265;51.664;7.626;2024-01-15T00:59:50;2.70;;;2.25;;
2362;SDS011;64265;51.664;7.626;2024-01-15T01:02:17;2.50;;;2.28;;
2362;SDS011;64265;51.664;7.626;2024-01-15T01:04:44;2.67;;;2.47;;
2362;SDS011;64265;51.664;7.626;2024-01-15T01:07:11;2.88;;;2.30;;
2362;SDS011;64265;51.664;7.626;2024-01-15T01:09:39;2.42;;;2.22;;
2362;SDS011;64265;51.664;7.626;2024-01-15T01:12:06;2.60;;;2.40;;
2362;SDS011;64265;51.664;7.626;2024-01-15T01:14:32;2.15;;;2.05;;
2362;SDS011;64265;51.664;7.626;2024-01-15T01:16:59;2.42;;;2.22;;
2362;SDS011;64265;51.664;7.626;2024-01-15T01:19:26;2.53;;;2.00;;
2362;SDS011;64265;51.664;7.626;2024-01-15T01:21:53;1.98;;;1.88;;
2362;SDS011;64265;51.664;7.626;2024-01-15T01:24:19;2.35;;;2.15;;
2362;SDS011;64265;51.664;7.626;2024-01-15T01:26:47;2.28;;;2.08;;
2362;SDS011;64265;51.664;7.626;2024-01-15T01:29:14;1.90;;;1.80;;
2362;SDS011;64265;51.664;7.626;2024-01-15T01:31:44;2.05;;;1.85;;
2362;SDS011;64265;51.664;7.626;2024-01-15T01:34:13;2.40;;;2.20;;
2362;SDS011;64265;51.664;7.626;2024-01-15T01:36:41;2.60;;;2.40;;
2362;SDS011;64265;51.664;7.626;2024-01-15T01:39:08;2.40;;;2.20;;
2362;SDS011;64265;51.664;7.626;2024-01-15T01:41:35;2.80;;;2.27;;
2362;SDS011;64265;51.664;7.626;2024-01-15T01:44:03;2.05;;;1.85;;
2362;SDS011;64265;51.664;7.626;2024-01-15T01:46:30;2.60;;;2.40;;
2362;SDS011;64265;51.664;7.626;2024-01-15T01:48:58;2.25;;;2.05;;
2362;SDS011;64265;51.664;7.626;2024-01-15T01:51:30;2.40;;;2.22;;
2362;SDS011;64265;51.664;7.626;2024-01-15T01:53:57;2.20;;;2.03;;
2362;SDS011;64265;51.664;7.626;2024-01-15T01:56:24;2.80;;;2.60;;
2362;SDS011;64265;51.664;7.626;2024-01-15T01:58:51;1.83;;;1.73;;
2362;SDS011;64265;51.664;7.626;2024-01-15T02:01:19;1.92;;;1.75;;
2362;SDS011;64265;51.664;7.626;2024-01-15T02:03:46;2.60;;;2.40;;
2362;SDS011;64265;51.664;7.626;2024-01-15T02:06:12;2.25;;;2.05;;
2362;SDS011;64265;51.664;7.626;2024-01-15T02:08:39;1.85;;;1.70;;
2362;SDS011;64265;51.664;7.626;2024-01-15T02:11:09;2.05;;;1.90;;
2362;SDS011;64265;51.664;7.626;2024-01-15T02:13:36;2.30;;;2.10;;
2362;SDS011;64265;51.664;7.626;2024-01-15T02:16:02;2.30;;;2.00;;
2362;SDS011;64265;51.664;7.626;2024-01-15T02:18:37;3.15;;;2.60;;
2362;SDS011;64265;51.664;7.626;2024-01-15T02:21:06;2.38;;;2.17;;
2362;SDS011;64265;51.664;7.626;2024-01-15T02:23:34;2.58;;;2.38;;
2362;SDS011;64265;51.664;7.626;2024-01-15T02:26:01;2.25;;;2.05;;
2362;SDS011;64265;51.664;7.626;2024-01-15T02:28:28;2.83;;;2.22;;
2362;SDS011;64265;51.664;7.626;2024-01-15T02:30:55;4.13;;;2.40;;
2362;SDS011;64265;51.664;7.626;2024-01-15T02:33:22;2.10;;;1.85;;
2362;SDS011;64265;51.664;7.626;2024-01-15T02:35:49;1.98;;;1.75;;
2362;SDS011;64265;51.664;7.626;2024-01-15T02:38:16;2.42;;;2.22;;
2362;SDS011;64265;51.664;7.626;2024-01-15T02:40:44;2.22;;;2.03;;
2362;SDS011;64265;51.664;7.626;2024-01-15T02:43:11;2.10;;;1.90;;
2362;SDS011;64265;51.664;7.626;2024-01-15T02:45:38;2.40;;;2.20;;
2362;SDS011;64265;51.664;7.626;2024-01-15T02:48:05;2.35;;;1.95;;
2362;SDS011;64265;51.664;7.626;2024-01-15T02:50:32;2.42;;;2.05;;
2362;SDS011;64265;51.664;7.626;2024-01-15T02:52:59;2.33;;;2.13;;
2362;SDS011;64265;51.664;7.626;2024-01-15T02:55:26;2.35;;;2.13;;
2362;SDS011;64265;51.664;7.626;2024-01-15T02:57:55;2.10;;;2.00;;
2362;SDS011;64265;51.664;7.626;2024-01-15T03:00:22;2.03;;;1.85;;
2362;SDS011;64265;51.664;7.626;2024-01-15T03:02:49;1.80;;;1.65;;
2362;SDS011;64265;51.664;7.626;2024-01-15T03:05:17;2.33;;;2.05;;
2362;SDS011;64265;51.664;7.626;2024-01-15T03:07:45;3.00;;;1.80;;
2362;SDS011;64265;51.664;7.626;2024-01-15T03:10:11;2.42;;;2.22;;
2362;SDS011;64265;51.664;7.626;2024-01-15T03:12:38;1.98;;;1.88;;
2362;SDS011;64265;51.664;7.626;2024-01-15T03:15:07;2.20;;;2.00;;
2362;SDS011;64265;51.664;7.626;2024-01-15T03:17:33;1.90;;;1.80;;
2362;SDS011;64265;51.664;7.626;2024-01-15T03:20:01;2.17;;;2.05;;
2362;SDS011;64265;51.664;7.626;2024-01-15T03:22:28;2.10;;;1.90;;
2362;SDS011;64265;51.664;7.626;2024-01-15T03:24:55;2.17;;;1.98;;
2362;SDS011;64265;51.664;7.626;2024-01-15T03:27:21;2.17;;;1.98;;
2362;SDS011;64265;51.664;7.626;2024-01-15T03:29:48;2.40;;;1.95;;
2362;SDS011;64265;51.664;7.626;2024-01-15T03:32:16;2.17;;;1.98;;
2362;SDS011;64265;51.664;7.626;2024-01-15T03:34:44;2.47;;;2.28;;
2362;SDS011;64265;51.664;7.626;2024-01-15T03:37:12;2.20;;;2.00;;
2362;SDS011;64265;51.664;7.626;2024-01-15T03:39:39;2.20;;;2.00;;
2362;SDS011;64265;51.664;7.626;2024-01-15T03:42:06;2.58;;;2.00;;
2362;SDS011;64265;51.664;7.626;2024-01-15T03:44:32;1.90;;;1.80;;
2362;SDS011;64265;51.664;7.626;2024-01-15T03:46:59;2.17;;;1.98;;
2362;SDS011;64265;51.664;7.626;2024-01-15T03:49:27;2.00;;;1.70;;
2362;SDS011;64265;51.664;7.626;2024-01-15T03:51:54;2.00;;;1.70;;
2362;SDS011;64265;51.664;7.626;2024-01-15T03:54:20;1.95;;;1.65;;
2362;SDS011;64265;51.664;7.626;2024-01-15T03:56:47;2.30;;;2.10;;
2362;SDS011;64265;51.664;7.626;2024-01-15T03:59:14;1.70;;;1.60;;
2362;SDS011;64265;51.664;7.626;2024-01-15T04:01:41;2.03;;;1.80;;
2362;SDS011;64265;51.664;7.626;2024-01-15T04:04:13;2.20;;;2.10;;
2362;SDS011;64265;51.664;7.626;2024-01-15T04:06:42;1.60;;;1.45;;
2362;SDS011;64265;51.664;7.626;2024-01-15T04:09:08;2.47;;;2.28;;
2362;SDS011;64265;51.664;7.626;2024-01-15T04:11:35;3.25;;;1.73;;
2362;SDS011;64265;51.664;7.626;2024-01-15T04:14:02;2.08;;;1.88;;
2362;SDS011;64265;51.664;7.626;2024-01-15T04:16:29;2.28;;;2.08;;
2362;SDS011;64265;51.664;7.626;2024-01-15T04:18:55;1.90;;;1.70;;
2362;SDS011;64265;51.664;7.626;2024-01-15T04:21:22;1.73;;;1.63;;
2362;SDS011;64265;51.664;7.626;2024-01-15T04:23:50;1.83;;;1.70;;
2362;SDS011;64265;51.664;7.626;2024-01-15T04:26:17;2.05;;;1.85;;
2362;SDS011;64265;51.664;7.626;2024-01-15T04:28:43;2.20;;;2.00;;
2362;SDS011;64265;51.664;7.626;2024-01-15T04:31:20;1.93;;;1.80;;
2362;SDS011;64265;51.664;7.626;2024-01-15T04:33:48;2.40;;;2.20;;
2362;SDS011;64265;51.664;7.626;2024-01-15T04:36:15;1.83;;;1.73;;
2362;SDS011;64265;51.664;7.626;2024-01-15T04:38:42;2.45;;;2.25;;
2362;SDS011;64265;51.664;7.626;2024-01-15T04:41:11;1.60;;;1.50;;
2362;SDS011;64265;51.664;7.626;2024-01-15T04:43:38;2.42;;;2.00;;
2362;SDS011;64265;51.664;7.626;2024-01-15T04:46:05;1.42;;;1.33;;
2362;SDS011;64265;51.664;7.626;2024-01-15T04:48:32;2.20;;;2.00;;
2362;SDS011;64265;51.664;7.626;2024-01-15T04:50:59;1.92;;;1.73;;
2362;SDS011;64265;51.664;7.626;2024-01-15T04:53:26;2.40;;;2.00;;
2362;SDS011;64265;51.664;7.626;2024-01-15T04:55:52;1.58;;;1.48;;
2362;SDS011;64265;51.664;7.626;2024-01-15T04:58:20;1.67;;;1.58;;
2362;SDS011;64265;51.664;7.626;2024-01-15T05:00:50;2.58;;;2.38;;
2362;SDS011;64265;51.664;7.626;2024-01-15T05:03:16;2.07;;;1.77;;
2362;SDS011;64265;51.664;7.626;2024-01-15T05:05:43;1.90;;;1.70;;
2362;SDS011;64265;51.664;7.626;2024-01-15T05:08:10;2.25;;;2.05;;
2362;SDS011;64265;51.664;7.626;2024-01-15T05:10:37;2.15;;;2.00;;
2362;SDS011;64265;51.664;7.626;2024-01-15T05:13:03;1.70;;;1.42;;
2362;SDS011;64265;51.664;7.626;2024-01-15T05:15:31;1.60;;;1.50;;
2362;SDS011;64265;51.664;7.626;2024-01-15T05:17:58;1.65;;;1.55;;
2362;SDS011;64265;51.664;7.626;2024-01-15T05:20:25;2.05;;;1.85;;
2362;SDS011;64265;51.664;7.626;2024-01-15T05:22:51;1.92;;;1.83;;
2362;SDS011;64265;51.664;7.626;2024-01-15T05:25:18;2.20;;;2.00;;
2362;SDS011;64265;51.664;7.626;2024-01-15T05:27:45;1.50;;;1.40;;
2362;SDS011;64265;51.664;7.626;2024-01-15T05:30:12;1.92;;;1.60;;
2362;SDS011;64265;51.664;7.626;2024-01-15T05:32:40;1.90;;;1.80;;
2362;SDS011;64265;51.664;7.626;2024-01-15T05:35:07;1.80;;;1.70;;
2362;SDS011;64265;51.664;7.626;2024-01-15T05:37:34;2.20;;;2.00;;
2362;SDS011;64265;51.664;7.626;2024-01-15T05:40:01;1.85;;;1.75;;
2362;SDS011;64265;51.664;7.626;2024-01-15T05:42:29;2.40;;;2.25;;
2362;SDS011;64265;51.664;7.626;2024-01-15T05:44:57;2.17;;;1.97;;
2362;SDS011;64265;51.664;7.626;2024-01-15T05:47:25;1.50;;;1.40;;
2362;SDS011;64265;51.664;7.626;2024-01-15T05:49:53;1.85;;;1.60;;
2362;SDS011;64265;51.664;7.626;2024-01-15T05:52:20;1.40;;;1.30;;
2362;SDS011;64265;51.664;7.626;2024-01-15T05:54:47;1.60;;;1.50;;
2362;SDS011;64265;51.664;7.626;2024-01-15T05:57:15;1.70;;;1.60;;
2362;SDS011;64265;51.664;7.626;2024-01-15T05:59:42;1.88;;;1.77;;
2362;SDS011;64265;51.664;7.626;2024-01-15T06:02:10;1.73;;;1.57;;
2362;SDS011;64265;51.664;7.626;2024-01-15T06:04:36;1.70;;;1.60;;
2362;SDS011;64265;51.664;7.626;2024-01-15T06:07:05;1.45;;;1.35;;
2362;SDS011;64265;51.664;7.626;2024-01-15T06:09:31;2.00;;;1.80;;
2362;SDS011;64265;51.664;7.626;2024-01-15T06:11:58;1.60;;;1.40;;
2362;SDS011;64265;51.664;7.626;2024-01-15T06:14:25;1.90;;;1.70;;
2362;SDS011;64265;51.664;7.626;2024-01-15T06:16:52;1.70;;;1.42;;
2362;SDS011;64265;51.664;7.626;2024-01-15T06:19:18;1.52;;;1.42;;
2362;SDS011;64265;51.664;7.626;2024-01-15T06:21:45;1.83;;;1.70;;
2362;SDS011;64265;51.664;7.626;2024-01-15T06:24:13;1.70;;;1.60;;
2362;SDS011;64265;51.664;7.626;2024-01-15T06:26:40;1.55;;;1.45;;
2362;SDS011;64265;51.664;7.626;2024-01-15T06:29:07;1.60;;;1.50;;
2362;SDS011;64265;51.664;7.626;2024-01-15T06:31:34;1.92;;;1.75;;
2362;SDS011;64265;51.664;7.626;2024-01-15T06:34:00;1.50;;;1.40;;
2362;SDS011;64265;51.664;7.626;2024-01-15T06:36:27;1.80;;;1.70;;
2362;SDS011;64265;51.664;7.626;2024-01-15T06:38:54;2.10;;;1.80;;
2362;SDS011;64265;51.664;7.626;2024-01-15T06:41:22;1.50;;;1.40;;
2362;SDS011;64265;51.664;7.626;2024-01-15T06:43:50;1.70;;;1.60;;
2362;SDS011;64265;51.664;7.626;2024-01-15T06:46:19;1.40;;;1.30;;
2362;SDS011;64265;51.664;7.626;2024-01-15T06:48:46;2.03;;;1.77;;
2362;SDS011;64265;51.664;7.626;2024-01-15T06:51:13;2.08;;;1.88;;
2362;SDS011;64265;51.664;7.626;2024-01-15T06:53:41;1.50;;;1.40;;
2362;SDS011;64265;51.664;7.626;2024-01-15T06:56:08;1.67;;;1.52;;
2362;SDS011;64265;51.664;7.626;2024-01-15T06:58:36;1.80;;;1.20;;
2362;SDS011;64265;51.664;7.626;2024-01-15T07:01:03;1.40;;;1.30;;
2362;SDS011;64265;51.664;7.626;2024-01-15T07:03:31;2.03;;;1.83;;
2362;SDS011;64265;51.664;7.626;2024-01-15T07:05:57;1.52;;;1.42;;
2362;SDS011;64265;51.664;7.626;2024-01-15T07:08:24;1.60;;;1.50;;
2362;SDS011;64265;51.664;7.626;2024-01-15T07:10:51;1.63;;;1.52;;
2362;SDS011;64265;51.664;7.626;2024-01-15T07:13:18;1.95;;;1.75;;
2362;SDS011;64265;51.664;7.626;2024-01-15T07:15:46;2.08;;;1.98;;
2362;SDS011;64265;51.664;7.626;2024-01-15T07:18:12;1.65;;;1.35;;
2362;SDS011;64265;51.664;7.626;2024-01-15T07:20:39;1.42;;;1.33;;
2362;SDS011;64265;51.664;7.626;2024-01-15T07:23:06;8.95;;;1.75;;
2362;SDS011;64265;51.664;7.626;2024-01-15T07:25:33;8.50;;;2.00;;
2362;SDS011;64265;51.664;7.626;2024-01-15T07:27:59;2.10;;;1.95;;
2362;SDS011;64265;51.664;7.626;2024-01-15T07:30:26;6.28;;;1.40;;
2362;SDS011;64265;51.664;7.626;2024-01-15T07:32:54;1.50;;;1.38;;
2362;SDS011;64265;51.664;7.626;2024-01-15T07:35:21;2.97;;;1.88;;
2362;SDS011;64265;51.664;7.626;2024-01-15T07:37:48;6.18;;;2.75;;
2362;SDS011;64265;51.664;7.626;2024-01-15T07:40:15;4.13;;;1.50;;
2362;SDS011;64265;51.664;7.626;2024-01-15T07:42:41;2.95;;;1.92;;
2362;SDS011;64265;51.664;7.626;2024-01-15T07:45:08;2.13;;;1.70;;
2362;SDS011;64265;51.664;7.626;2024-01-15T07:47:36;3.55;;;1.60;;
2362;SDS011;64265;51.664;7.626;2024-01-15T07:50:04;3.55;;;1.42;;
2362;SDS011;64265;51.664;7.626;2024-01-15T07:52:31;1.30;;;1.10;;
2362;SDS011;64265;51.664;7.626;2024-01-15T07:54:58;1.75;;;1.30;;
2362;SDS011;64265;51.664;7.626;2024-01-15T07:57:26;2.17;;;1.50;;
2362;SDS011;64265;51.664;7.626;2024-01-15T07:59:52;1.70;;;1.60;;
2362;SDS011;64265;51.664;7.626;2024-01-15T08:02:19;1.45;;;1.35;;
2362;SDS011;64265;51.664;7.626;2024-01-15T08:04:46;2.55;;;1.67;;
2362;SDS011;64265;51.664;7.626;2024-01-15T08:07:14;1.70;;;1.40;;
2362;SDS011;64265;51.664;7.626;2024-01-15T08:09:42;1.65;;;1.45;;
2362;SDS011;64265;51.664;7.626;2024-01-15T08:12:09;2.70;;;1.48;;
2362;SDS011;64265;51.664;7.626;2024-01-15T08:14:36;1.90;;;1.27;;
2362;SDS011;64265;51.664;7.626;2024-01-15T08:17:03;1.95;;;1.58;;
2362;SDS011;64265;51.664;7.626;2024-01-15T08:19:31;2.00;;;1.65;;
2362;SDS011;64265;51.664;7.626;2024-01-15T08:21:58;1.20;;;1.08;;
2362;SDS011;64265;51.664;7.626;2024-01-15T08:24:26;1.90;;;1.80;;
2362;SDS011;64265;51.664;7.626;2024-01-15T08:26:53;1.67;;;1.50;;
2362;SDS011;64265;51.664;7.626;2024-01-15T08:29:21;4.43;;;1.90;;
2362;SDS011;64265;51.664;7.626;2024-01-15T08:31:49;1.67;;;1.17;;
2362;SDS011;64265;51.664;7.626;2024-01-15T08:34:16;1.60;;;1.50;;
2362;SDS011;64265;51.664;7.626;2024-01-15T08:36:43;1.58;;;1.45;;
2362;SDS011;64265;51.664;7.626;2024-01-15T08:39:10;1.70;;;1.37;;
2362;SDS011;64265;51.664;7.626;2024-01-15T08:41:39;1.80;;;1.50;;
2362;SDS011;64265;51.664;7.626;2024-01-15T08:44:06;1.85;;;1.75;;
2362;SDS011;64265;51.664;7.626;2024-01-15T08:46:33;1.40;;;1.30;;
2362;SDS011;64265;51.664;7.626;2024-01-15T08:48:59;2.75;;;2.50;;
2362;SDS011;64265;51.664;7.626;2024-01-15T08:51:26;1.45;;;1.25;;
2362;SDS011;64265;51.664;7.626;2024-01-15T08:53:53;1.30;;;1.20;;
2362;SDS011;64265;51.664;7.626;2024-01-15T08:56:20;1.63;;;1.52;;
2362;SDS011;64265;51.664;7.626;2024-01-15T08:58:48;1.50;;;1.33;;
2362;SDS011;64265;51.664;7.626;2024-01-15T09:01:15;1.60;;;1.50;;
2362;SDS011;64265;51.664;7.626;2024-01-15T09:03:42;2.03;;;1.77;;
2362;SDS011;64265;51.664;7.626;2024-01-15T09:06:08;1.67;;;1.58;;
2362;SDS011;64265;51.664;7.626;2024-01-15T09:08:36;1.42;;;1.33;;
2362;SDS011;64265;51.664;7.626;2024-01-15T09:11:03;27.30;;;2.13;;
2362;SDS011;64265;51.664;7.626;2024-01-15T09:13:29;2.20;;;1.52;;
2362;SDS011;64265;51.664;7.626;2024-01-15T09:15:58;2.30;;;1.43;;
2362;SDS011;64265;51.664;7.626;2024-01-15T09:18:26;3.70;;;1.30;;
2362;SDS011;64265;51.664;7.626;2024-01-15T09:20:52;2.03;;;1.83;;
2362;SDS011;64265;51.664;7.626;2024-01-15T09:23:19;1.70;;;1.60;;
2362;SDS011;64265;51.664;7.626;2024-01-15T09:25:46;4.78;;;1.70;;
2362;SDS011;64265;51.664;7.626;2024-01-15T09:28:13;3.20;;;1.00;;
2362;SDS011;64265;51.664;7.626;2024-01-15T09:30:40;2.80;;;1.42;;
2362;SDS011;64265;51.664;7.626;2024-01-15T09:33:08;2.13;;;1.50;;
2362;SDS011;64265;51.664;7.626;2024-01-15T09:35:35;2.85;;;1.50;;
2362;SDS011;64265;51.664;7.626;2024-01-15T09:38:02;1.50;;;1.40;;
2362;SDS011;64265;51.664;7.626;2024-01-15T09:40:30;1.35;;;1.20;;
2362;SDS011;64265;51.664;7.626;2024-01-15T09:42:58;1.83;;;1.20;;
2362;SDS011;64265;51.664;7.626;2024-01-15T09:45:26;1.50;;;1.40;;
2362;SDS011;64265;51.664;7.626;2024-01-15T09:47:53;1.95;;;1.60;;
2362;SDS011;64265;51.664;7.626;2024-01-15T09:50:21;1.40;;;1.30;;
2362;SDS011;64265;51.664;7.626;2024-01-15T09:52:48;3.97;;;1.90;;
2362;SDS011;64265;51.664;7.626;2024-01-15T09:55:17;1.73;;;1.30;;
2362;SDS011;64265;51.664;7.626;2024-01-15T09:57:44;1.92;;;1.50;;
2362;SDS011;64265;51.664;7.626;2024-01-15T10:00:12;2.07;;;1.30;;
2362;SDS011;64265;51.664;7.626;2024-01-15T10:02:40;1.52;;;1.38;;
2362;SDS011;64265;51.664;7.626;2024-01-15T10:05:07;1.52;;;1.42;;
2362;SDS011;64265;51.664;7.626;2024-01-15T10:07:37;5.72;;;1.60;;
2362;SDS011;64265;51.664;7.626;2024-01-15T10:10:05;1.88;;;1.58;;
2362;SDS011;64265;51.664;7.626;2024-01-15T10:12:32;2.35;;;1.80;;
2362;SDS011;64265;51.664;7.626;2024-01-15T10:14:59;1.77;;;1.50;;
2362;SDS011;64265;51.664;7.626;2024-01-15T10:17:26;1.40;;;1.30;;
2362;SDS011;64265;51.664;7.626;2024-01-15T10:19:53;2.00;;;1.30;;
2362;SDS011;64265;51.664;7.626;2024-01-15T10:22:20;1.85;;;1.55;;
2362;SDS011;64265;51.664;7.626;2024-01-15T10:24:48;1.48;;;1.30;;
2362;SDS011;64265;51.664;7.626;2024-01-15T10:27:15;2.08;;;1.35;;
2362;SDS011;64265;51.664;7.626;2024-01-15T10:29:42;2.10;;;1.80;;
2362;SDS011;64265;51.664;7.626;2024-01-15T10:32:09;1.85;;;1.65;;
2362;SDS011;64265;51.664;7.626;2024-01-15T10:34:37;2.95;;;1.85;;
2362;SDS011;64265;51.664;7.626;2024-01-15T10:37:06;1.35;;;1.25;;
2362;SDS011;64265;51.664;7.626;2024-01-15T10:39:33;1.73;;;1.40;;
2362;SDS011;64265;51.664;7.626;2024-01-15T10:42:02;2.10;;;1.42;;
2362;SDS011;64265;51.664;7.626;2024-01-15T10:44:29;1.60;;;1.50;;
2362;SDS011;64265;51.664;7.626;2024-01-15T10:46:56;1.27;;;1.17;;
2362;SDS011;64265;51.664;7.626;2024-01-15T10:49:23;3.83;;;1.45;;
2362;SDS011;64265;51.664;7.626;2024-01-15T10:51:53;2.38;;;1.48;;
2362;SDS011;64265;51.664;7.626;2024-01-15T10:54:20;2.30;;;1.20;;
2362;SDS011;64265;51.664;7.626;2024-01-15T10:56:48;1.77;;;1.20;;
2362;SDS011;64265;51.664;7.626;2024-01-15T10:59:17;2.75;;;1.65;;
2362;SDS011;64265;51.664;7.626;2024-01-15T11:01:46;1.98;;;1.48;;
2362;SDS011;64265;51.664;7.626;2024-01-15T11:04:13;1.40;;;1.25;;
2362;SDS011;64265;51.664;7.626;2024-01-15T11:06:42;2.10;;;1.30;;
2362;SDS011;64265;51.664;7.626;2024-01-15T11:09:11;1.63;;;1.27;;
2362;SDS011;64265;51.664;7.626;2024-01-15T11:11:40;1.40;;;1.30;;
2362;SDS011;64265;51.664;7.626;2024-01-15T11:14:08;1.52;;;1.40;;
2362;SDS011;64265;51.664;7.626;2024-01-15T11:16:54;2.20;;;1.58;;
2362;SDS011;64265;51.664;7.626;2024-01-15T11:19:24;1.30;;;1.10;;
2362;SDS011;64265;51.664;7.626;2024-01-15T11:21:51;1.30;;;1.20;;
2362;SDS011;64265;51.664;7.626;2024-01-15T11:27:09;1.80;;;1.42;;
2362;SDS011;64265;51.664;7.626;2024-01-15T11:29:36;1.52;;;1.25;;
2362;SDS011;64265;51.664;7.626;2024-01-15T11:32:05;2.50;;;1.23;;
2362;SDS011;64265;51.664;7.626;2024-01-15T11:37:27;1.38;;;1.25;;
2362;SDS011;64265;51.664;7.626;2024-01-15T11:39:55;1.40;;;1.00;;
2362;SDS011;64265;51.664;7.626;2024-01-15T11:42:22;1.33;;;1.15;;
2362;SDS011;64265;51.664;7.626;2024-01-15T11:44:49;1.73;;;1.02;;
2362;SDS011;64265;51.664;7.626;2024-01-15T11:47:21;1.37;;;1.20;;
2362;SDS011;64265;51.664;7.626;2024-01-15T11:50:20;1.50;;;1.40;;
2362;SDS011;64265;51.664;7.626;2024-01-15T11:52:49;1.33;;;1.20;;
2362;SDS011;64265;51.664;7.626;2024-01-15T11:55:23;3.08;;;1.10;;
2362;SDS011;64265;51.664;7.626;2024-01-15T11:57:53;2.40;;;1.93;;
2362;SDS011;64265;51.664;7.626;2024-01-15T12:00:22;1.67;;;1.30;;
2362;SDS011;64265;51.664;7.626;2024-01-15T12:02:50;1.70;;;1.10;;
2362;SDS011;64265;51.664;7.626;2024-01-15T12:05:18;1.30;;;1.20;;
2362;SDS011;64265;51.664;7.626;2024-01-15T12:07:47;4.70;;;1.38;;
2362;SDS011;64265;51.664;7.626;2024-01-15T12:10:15;1.20;;;1.10;;
2362;SDS011;64265;51.664;7.626;2024-01-15T12:12:47;1.48;;;1.33;;
2362;SDS011;64265;51.664;7.626;2024-01-15T12:15:21;1.25;;;1.15;;
2362;SDS011;64265;51.664;7.626;2024-01-15T12:17:48;1.20;;;1.02;;
2362;SDS011;64265;51.664;7.626;2024-01-15T12:20:16;1.90;;;1.23;;
2362;SDS011;64265;51.664;7.626;2024-01-15T12:22:44;1.30;;;1.13;;
2362;SDS011;64265;51.664;7.626;2024-01-15T12:25:11;1.35;;;1.17;;
2362;SDS011;64265;51.664;7.626;2024-01-15T12:27:37;1.50;;;1.40;;
2362;SDS011;64265;51.664;7.626;2024-01-15T12:30:05;1.50;;;1.20;;
2362;SDS011;64265;51.664;7.626;2024-01-15T12:32:34;1.38;;;1.17;;
2362;SDS011;64265;51.664;7.626;2024-01-15T12:35:00;1.75;;;1.65;;
2362;SDS011;64265;51.664;7.626;2024-01-15T12:37:29;1.27;;;1.13;;
2362;SDS011;64265;51.664;7.626;2024-01-15T12:39:55;1.57;;;1.30;;
2362;SDS011;64265;51.664;7.626;2024-01-15T12:42:25;1.30;;;1.20;;
2362;SDS011;64265;51.664;7.626;2024-01-15T12:44:55;1.10;;;1.00;;
2362;SDS011;64265;51.664;7.626;2024-01-15T12:47:22;1.80;;;1.00;;
2362;SDS011;64265;51.664;7.626;2024-01-15T12:49:50;2.20;;;1.20;;
2362;SDS011;64265;51.664;7.626;2024-01-15T12:52:19;1.50;;;1.20;;
2362;SDS011;64265;51.664;7.626;2024-01-15T12:54:48;1.30;;;1.10;;
2362;SDS011;64265;51.664;7.626;2024-01-15T12:57:15;1.23;;;1.13;;
2362;SDS011;64265;51.664;7.626;2024-01-15T12:59:42;1.30;;;1.20;;
2362;SDS011;64265;51.664;7.626;2024-01-15T13:02:09;1.10;;;1.00;;
2362;SDS011;64265;51.664;7.626;2024-01-15T13:04:36;1.40;;;1.30;;
2362;SDS011;64265;51.664;7.626;2024-01-15T13:07:03;1.20;;;0.95;;
2362;SDS011;64265;51.664;7.626;2024-01-15T13:09:30;1.75;;;1.00;;
2362;SDS011;64265;51.664;7.626;2024-01-15T13:11:58;1.27;;;1.17;;
2362;SDS011;64265;51.664;7.626;2024-01-15T13:14:26;1.10;;;1.00;;
2362;SDS011;64265;51.664;7.626;2024-01-15T13:16:53;1.52;;;1.10;;
2362;SDS011;64265;51.664;7.626;2024-01-15T13:19:19;2.53;;;1.05;;
2362;SDS011;64265;51.664;7.626;2024-01-15T13:21:47;1.33;;;0.90;;
2362;SDS011;64265;51.664;7.626;2024-01-15T13:24:15;1.00;;;0.80;;
2362;SDS011;64265;51.664;7.626;2024-01-15T13:26:42;1.10;;;1.00;;
2362;SDS011;64265;51.664;7.626;2024-01-15T13:29:10;1.45;;;1.30;;
2362;SDS011;64265;51.664;7.626;2024-01-15T13:31:37;4.72;;;1.45;;
2362;SDS011;64265;51.664;7.626;2024-01-15T13:34:04;1.45;;;1.35;;
2362;SDS011;64265;51.664;7.626;2024-01-15T13:36:32;1.45;;;1.08;;
2362;SDS011;64265;51.664;7.626;2024-01-15T13:38:59;1.33;;;1.10;;
2362;SDS011;64265;51.664;7.626;2024-01-15T13:41:25;1.50;;;1.20;;
2362;SDS011;64265;51.664;7.626;2024-01-15T13:43:54;1.75;;;1.00;;
2362;SDS011;64265;51.664;7.626;2024-01-15T13:46:23;1.70;;;1.20;;
2362;SDS011;64265;51.664;7.626;2024-01-15T13:48:51;2.55;;;0.88;;
2362;SDS011;64265;51.664;7.626;2024-01-15T13:51:18;1.90;;;1.13;;
2362;SDS011;64265;51.664;7.626;2024-01-15T13:53:45;1.80;;;1.13;;
2362;SDS011;64265;51.664;7.626;2024-01-15T13:56:11;1.30;;;1.10;;
2362;SDS011;64265;51.664;7.626;2024-01-15T13:58:38;1.15;;;1.00;;
2362;SDS011;64265;51.664;7.626;2024-01-15T14:01:05;1.40;;;1.30;;
2362;SDS011;64265;51.664;7.626;2024-01-15T14:03:33;2.28;;;1.30;;
2362;SDS011;64265;51.664;7.626;2024-01-15T14:06:00;1.30;;;1.10;;
2362;SDS011;64265;51.664;7.626;2024-01-15T14:08:28;2.67;;;1.48;;
2362;SDS011;64265;51.664;7.626;2024-01-15T14:10:55;1.10;;;1.00;;
2362;SDS011;64265;51.664;7.626;2024-01-15T14:13:22;2.28;;;1.27;;
2362;SDS011;64265;51.664;7.626;2024-01-15T14:15:49;1.17;;;1.00;;
2362;SDS011;64265;51.664;7.626;2024-01-15T14:18:16;1.25;;;0.73;;
2362;SDS011;64265;51.664;7.626;2024-01-15T14:20:44;1.90;;;1.00;;
2362;SDS011;64265;51.664;7.626;2024-01-15T14:23:11;1.10;;;0.90;;
2362;SDS011;64265;51.664;7.626;2024-01-15T14:25:39;1.10;;;0.90;;
2362;SDS011;64265;51.664;7.626;2024-01-15T14:28:05;1.20;;;0.90;;
2362;SDS011;64265;51.664;7.626;2024-01-15T14:30:32;2.22;;;1.10;;
2362;SDS011;64265;51.664;7.626;2024-01-15T14:32:59;3.28;;;0.90;;
2362;SDS011;64265;51.664;7.626;2024-01-15T14:35:26;1.30;;;1.20;;
2362;SDS011;64265;51.664;7.626;2024-01-15T14:37:54;1.20;;;1.00;;
2362;SDS011;64265;51.664;7.626;2024-01-15T14:40:23;1.15;;;1.00;;
2362;SDS011;64265;51.664;7.626;2024-01-15T14:42:50;1.00;;;0.88;;
2362;SDS011;64265;51.664;7.626;2024-01-15T14:45:18;1.00;;;0.90;;
2362;SDS011;64265;51.664;7.626;2024-01-15T14:47:44;1.52;;;1.08;;
2362;SDS011;64265;51.664;7.626;2024-01-15T14:50:11;1.10;;;0.90;;
2362;SDS011;64265;51.664;7.626;2024-01-15T14:52:38;1.23;;;1.00;;
2362;SDS011;64265;51.664;7.626;2024-01-15T14:55:08;1.10;;;1.00;;
2362;SDS011;64265;51.664;7.626;2024-01-15T14:57:35;1.10;;;0.90;;
2362;SDS011;64265;51.664;7.626;2024-01-15T15:00:02;1.27;;;0.90;;
2362;SDS011;64265;51.664;7.626;2024-01-15T15:02:32;2.35;;;1.23;;
2362;SDS011;64265;51.664;7.626;2024-01-15T15:04:59;1.38;;;1.17;;
2362;SDS011;64265;51.664;7.626;2024-01-15T15:07:26;2.15;;;1.15;;